Janesville, Wisconsin
Current Conditions -  °F | °C
As of 2:15 AM on Monday 26 Jan 2015 (Local Time) from KJVL Reporting Station
Clear Clear  
Wind Chill: -10°   Ceiling: Unl
Heat Index: -10°   Visibility: 10mi
Dew Point: -12°   Wind: 3mph
Humidity: 86%   Direction: 300°WNW
Pressure: 30.01"   Gusts: NA
Location:  42.69°N, 89.02°W
Report Text: KJVL 260815Z AUTO 30003KT 10SM CLR M10/M12 A3001 RMK AO2
Loading
Personal Weather Stations






























Interactive Weather Map New forecast layout! Learn more

10-Day Weather Forecast

Advertisements
Track Severe Weather on mobile